sensor_id;sensor_type;location;lat;lon;timestamp;P1;durP1;ratioP1;P2;durP2;ratioP2
69491;SDS011;56692;52.016;4.356;2023-04-03T00:01:56;2.15;;;0.40;;
69491;SDS011;56692;52.016;4.356;2023-04-03T00:04:22;1.63;;;0.33;;
69491;SDS011;56692;52.016;4.356;2023-04-03T00:06:48;2.90;;;0.30;;
69491;SDS011;56692;52.016;4.356;2023-04-03T00:09:14;1.90;;;0.30;;
69491;SDS011;56692;52.016;4.356;2023-04-03T00:11:39;2.33;;;0.50;;
69491;SDS011;56692;52.016;4.356;2023-04-03T00:14:05;2.17;;;0.30;;
69491;SDS011;56692;52.016;4.356;2023-04-03T00:16:31;0.88;;;0.20;;
69491;SDS011;56692;52.016;4.356;2023-04-03T00:18:57;1.30;;;0.40;;
69491;SDS011;56692;52.016;4.356;2023-04-03T00:21:22;4.97;;;0.30;;
69491;SDS011;56692;52.016;4.356;2023-04-03T00:23:48;1.37;;;0.20;;
69491;SDS011;56692;52.016;4.356;2023-04-03T00:26:16;1.85;;;0.30;;
69491;SDS011;56692;52.016;4.356;2023-04-03T00:28:42;1.73;;;0.30;;
69491;SDS011;56692;52.016;4.356;2023-04-03T00:31:08;1.63;;;0.40;;
69491;SDS011;56692;52.016;4.356;2023-04-03T00:33:33;1.10;;;0.35;;
69491;SDS011;56692;52.016;4.356;2023-04-03T00:36:04;1.33;;;0.40;;
69491;SDS011;56692;52.016;4.356;2023-04-03T00:38:32;1.43;;;0.20;;
69491;SDS011;56692;52.016;4.356;2023-04-03T00:40:57;2.08;;;0.30;;
69491;SDS011;56692;52.016;4.356;2023-04-03T00:43:24;2.20;;;0.30;;
69491;SDS011;56692;52.016;4.356;2023-04-03T00:45:52;1.83;;;0.30;;
69491;SDS011;56692;52.016;4.356;2023-04-03T00:48:20;1.38;;;0.20;;
69491;SDS011;56692;52.016;4.356;2023-04-03T00:50:51;1.77;;;0.25;;
69491;SDS011;56692;52.016;4.356;2023-04-03T00:53:19;0.97;;;0.30;;
69491;SDS011;56692;52.016;4.356;2023-04-03T00:55:49;2.17;;;0.20;;
69491;SDS011;56692;52.016;4.356;2023-04-03T00:58:18;1.85;;;0.40;;
69491;SDS011;56692;52.016;4.356;2023-04-03T01:00:47;1.13;;;0.20;;
69491;SDS011;56692;52.016;4.356;2023-04-03T01:03:22;0.93;;;0.30;;
69491;SDS011;56692;52.016;4.356;2023-04-03T01:05:48;1.17;;;0.30;;
69491;SDS011;56692;52.016;4.356;2023-04-03T01:08:14;1.50;;;0.30;;
69491;SDS011;56692;52.016;4.356;2023-04-03T01:10:40;2.45;;;0.38;;
69491;SDS011;56692;52.016;4.356;2023-04-03T01:13:21;1.30;;;0.43;;
69491;SDS011;56692;52.016;4.356;2023-04-03T01:15:49;1.03;;;0.20;;
69491;SDS011;56692;52.016;4.356;2023-04-03T01:18:15;0.80;;;0.20;;
69491;SDS011;56692;52.016;4.356;2023-04-03T01:23:29;1.95;;;0.32;;
69491;SDS011;56692;52.016;4.356;2023-04-03T01:26:07;2.50;;;0.37;;
69491;SDS011;56692;52.016;4.356;2023-04-03T01:28:35;2.35;;;0.40;;
69491;SDS011;56692;52.016;4.356;2023-04-03T01:33:53;1.92;;;0.30;;
69491;SDS011;56692;52.016;4.356;2023-04-03T01:36:23;1.23;;;0.22;;
69491;SDS011;56692;52.016;4.356;2023-04-03T01:38:51;0.80;;;0.30;;
69491;SDS011;56692;52.016;4.356;2023-04-03T01:41:18;1.52;;;0.30;;
69491;SDS011;56692;52.016;4.356;2023-04-03T01:43:45;1.30;;;0.20;;
69491;SDS011;56692;52.016;4.356;2023-04-03T01:46:11;1.48;;;0.30;;
69491;SDS011;56692;52.016;4.356;2023-04-03T01:48:37;1.00;;;0.30;;
69491;SDS011;56692;52.016;4.356;2023-04-03T01:51:03;0.90;;;0.40;;
69491;SDS011;56692;52.016;4.356;2023-04-03T01:53:29;1.10;;;0.35;;
69491;SDS011;56692;52.016;4.356;2023-04-03T01:55:55;1.23;;;0.30;;
69491;SDS011;56692;52.016;4.356;2023-04-03T01:58:21;0.90;;;0.20;;
69491;SDS011;56692;52.016;4.356;2023-04-03T02:00:46;1.73;;;0.40;;
69491;SDS011;56692;52.016;4.356;2023-04-03T02:03:13;1.92;;;0.38;;
69491;SDS011;56692;52.016;4.356;2023-04-03T02:05:39;0.93;;;0.20;;
69491;SDS011;56692;52.016;4.356;2023-04-03T02:08:05;0.60;;;0.20;;
69491;SDS011;56692;52.016;4.356;2023-04-03T02:10:31;1.02;;;0.30;;
69491;SDS011;56692;52.016;4.356;2023-04-03T02:12:57;1.35;;;0.30;;
69491;SDS011;56692;52.016;4.356;2023-04-03T02:15:23;2.05;;;0.20;;
69491;SDS011;56692;52.016;4.356;2023-04-03T02:17:48;1.27;;;0.53;;
69491;SDS011;56692;52.016;4.356;2023-04-03T02:20:14;1.88;;;0.35;;
69491;SDS011;56692;52.016;4.356;2023-04-03T02:22:40;1.53;;;0.20;;
69491;SDS011;56692;52.016;4.356;2023-04-03T02:25:06;3.25;;;0.30;;
69491;SDS011;56692;52.016;4.356;2023-04-03T02:27:32;0.90;;;0.20;;
69491;SDS011;56692;52.016;4.356;2023-04-03T02:29:57;1.17;;;0.30;;
69491;SDS011;56692;52.016;4.356;2023-04-03T02:32:23;1.48;;;0.30;;
69491;SDS011;56692;52.016;4.356;2023-04-03T02:34:49;2.63;;;0.23;;
69491;SDS011;56692;52.016;4.356;2023-04-03T02:37:14;1.52;;;0.25;;
69491;SDS011;56692;52.016;4.356;2023-04-03T02:39:40;1.23;;;0.40;;
69491;SDS011;56692;52.016;4.356;2023-04-03T02:42:06;1.98;;;0.50;;
69491;SDS011;56692;52.016;4.356;2023-04-03T02:44:32;2.30;;;0.30;;
69491;SDS011;56692;52.016;4.356;2023-04-03T02:46:58;2.60;;;0.37;;
69491;SDS011;56692;52.016;4.356;2023-04-03T02:49:23;1.30;;;0.43;;
69491;SDS011;56692;52.016;4.356;2023-04-03T02:51:49;1.10;;;0.20;;
69491;SDS011;56692;52.016;4.356;2023-04-03T02:54:16;2.13;;;0.43;;
69491;SDS011;56692;52.016;4.356;2023-04-03T02:56:42;1.15;;;0.20;;
69491;SDS011;56692;52.016;4.356;2023-04-03T02:59:07;1.17;;;0.20;;
69491;SDS011;56692;52.016;4.356;2023-04-03T03:01:33;2.78;;;0.40;;
69491;SDS011;56692;52.016;4.356;2023-04-03T03:03:59;1.00;;;0.20;;
69491;SDS011;56692;52.016;4.356;2023-04-03T03:06:25;2.40;;;0.40;;
69491;SDS011;56692;52.016;4.356;2023-04-03T03:08:51;1.38;;;0.35;;
69491;SDS011;56692;52.016;4.356;2023-04-03T03:11:17;1.40;;;0.30;;
69491;SDS011;56692;52.016;4.356;2023-04-03T03:13:43;2.10;;;0.20;;
69491;SDS011;56692;52.016;4.356;2023-04-03T03:16:08;2.13;;;0.38;;
69491;SDS011;56692;52.016;4.356;2023-04-03T03:18:34;1.40;;;0.37;;
69491;SDS011;56692;52.016;4.356;2023-04-03T03:21:01;1.63;;;0.30;;
69491;SDS011;56692;52.016;4.356;2023-04-03T03:23:29;0.82;;;0.40;;
69491;SDS011;56692;52.016;4.356;2023-04-03T03:26:07;2.22;;;0.47;;
69491;SDS011;56692;52.016;4.356;2023-04-03T03:28:35;2.30;;;0.40;;
69491;SDS011;56692;52.016;4.356;2023-04-03T03:31:01;1.77;;;0.30;;
69491;SDS011;56692;52.016;4.356;2023-04-03T03:33:27;1.30;;;0.30;;
69491;SDS011;56692;52.016;4.356;2023-04-03T03:35:53;0.93;;;0.32;;
69491;SDS011;56692;52.016;4.356;2023-04-03T03:38:19;3.37;;;0.30;;
69491;SDS011;56692;52.016;4.356;2023-04-03T03:40:49;1.10;;;0.20;;
69491;SDS011;56692;52.016;4.356;2023-04-03T03:43:16;0.93;;;0.20;;
69491;SDS011;56692;52.016;4.356;2023-04-03T03:45:42;1.83;;;0.40;;
69491;SDS011;56692;52.016;4.356;2023-04-03T03:48:08;1.45;;;0.20;;
69491;SDS011;56692;52.016;4.356;2023-04-03T03:50:34;1.55;;;0.20;;
69491;SDS011;56692;52.016;4.356;2023-04-03T03:53:00;1.20;;;0.20;;
69491;SDS011;56692;52.016;4.356;2023-04-03T03:55:25;3.10;;;0.30;;
69491;SDS011;56692;52.016;4.356;2023-04-03T03:57:51;2.90;;;0.30;;
69491;SDS011;56692;52.016;4.356;2023-04-03T04:00:17;1.10;;;0.30;;
69491;SDS011;56692;52.016;4.356;2023-04-03T04:02:43;1.17;;;0.30;;
69491;SDS011;56692;52.016;4.356;2023-04-03T04:05:08;2.80;;;0.30;;
69491;SDS011;56692;52.016;4.356;2023-04-03T04:07:35;3.13;;;0.30;;
69491;SDS011;56692;52.016;4.356;2023-04-03T04:10:00;1.60;;;0.50;;
69491;SDS011;56692;52.016;4.356;2023-04-03T04:12:26;3.55;;;0.70;;
69491;SDS011;56692;52.016;4.356;2023-04-03T04:14:52;2.23;;;0.60;;
69491;SDS011;56692;52.016;4.356;2023-04-03T04:17:17;2.17;;;0.60;;
69491;SDS011;56692;52.016;4.356;2023-04-03T04:19:43;2.23;;;0.53;;
69491;SDS011;56692;52.016;4.356;2023-04-03T04:22:09;3.15;;;0.70;;
69491;SDS011;56692;52.016;4.356;2023-04-03T04:24:35;3.45;;;0.63;;
69491;SDS011;56692;52.016;4.356;2023-04-03T04:27:01;3.47;;;1.00;;
69491;SDS011;56692;52.016;4.356;2023-04-03T04:29:26;2.20;;;0.60;;
69491;SDS011;56692;52.016;4.356;2023-04-03T04:31:52;3.20;;;0.70;;
69491;SDS011;56692;52.016;4.356;2023-04-03T04:34:17;4.90;;;0.60;;
69491;SDS011;56692;52.016;4.356;2023-04-03T04:36:43;3.03;;;0.40;;
69491;SDS011;56692;52.016;4.356;2023-04-03T04:39:09;2.97;;;0.52;;
69491;SDS011;56692;52.016;4.356;2023-04-03T04:41:35;3.27;;;0.60;;
69491;SDS011;56692;52.016;4.356;2023-04-03T04:44:00;2.38;;;0.43;;
69491;SDS011;56692;52.016;4.356;2023-04-03T04:46:26;2.73;;;0.60;;
69491;SDS011;56692;52.016;4.356;2023-04-03T04:48:52;2.17;;;0.35;;
69491;SDS011;56692;52.016;4.356;2023-04-03T04:51:18;2.83;;;0.70;;
69491;SDS011;56692;52.016;4.356;2023-04-03T04:53:44;1.93;;;0.53;;
69491;SDS011;56692;52.016;4.356;2023-04-03T04:56:10;3.30;;;0.40;;
69491;SDS011;56692;52.016;4.356;2023-04-03T04:58:36;3.13;;;0.40;;
69491;SDS011;56692;52.016;4.356;2023-04-03T05:01:03;2.95;;;0.73;;
69491;SDS011;56692;52.016;4.356;2023-04-03T05:03:34;1.77;;;0.40;;
69491;SDS011;56692;52.016;4.356;2023-04-03T05:06:00;2.05;;;0.77;;
69491;SDS011;56692;52.016;4.356;2023-04-03T05:08:26;3.50;;;0.50;;
69491;SDS011;56692;52.016;4.356;2023-04-03T05:10:52;4.10;;;0.60;;
69491;SDS011;56692;52.016;4.356;2023-04-03T05:13:18;28.97;;;2.53;;
69491;SDS011;56692;52.016;4.356;2023-04-03T05:15:45;28.27;;;2.25;;
69491;SDS011;56692;52.016;4.356;2023-04-03T05:18:11;20.77;;;1.73;;
69491;SDS011;56692;52.016;4.356;2023-04-03T05:20:37;17.58;;;1.38;;
69491;SDS011;56692;52.016;4.356;2023-04-03T05:23:02;12.53;;;2.00;;
69491;SDS011;56692;52.016;4.356;2023-04-03T05:25:28;14.52;;;1.25;;
69491;SDS011;56692;52.016;4.356;2023-04-03T05:27:54;13.73;;;1.20;;
69491;SDS011;56692;52.016;4.356;2023-04-03T05:30:20;15.32;;;1.05;;
69491;SDS011;56692;52.016;4.356;2023-04-03T05:32:46;12.43;;;1.53;;
69491;SDS011;56692;52.016;4.356;2023-04-03T05:35:12;14.05;;;1.80;;
69491;SDS011;56692;52.016;4.356;2023-04-03T05:37:38;14.20;;;1.50;;
69491;SDS011;56692;52.016;4.356;2023-04-03T05:40:09;9.27;;;0.80;;
69491;SDS011;56692;52.016;4.356;2023-04-03T05:42:35;12.57;;;0.88;;
69491;SDS011;56692;52.016;4.356;2023-04-03T05:45:01;7.95;;;0.80;;
69491;SDS011;56692;52.016;4.356;2023-04-03T05:47:26;9.40;;;1.40;;
69491;SDS011;56692;52.016;4.356;2023-04-03T05:49:52;12.48;;;1.38;;
69491;SDS011;56692;52.016;4.356;2023-04-03T05:54:57;10.98;;;0.90;;
69491;SDS011;56692;52.016;4.356;2023-04-03T05:57:23;12.70;;;0.80;;
69491;SDS011;56692;52.016;4.356;2023-04-03T05:59:49;13.50;;;1.23;;
69491;SDS011;56692;52.016;4.356;2023-04-03T06:02:16;10.55;;;1.00;;
69491;SDS011;56692;52.016;4.356;2023-04-03T06:04:43;8.98;;;1.15;;
69491;SDS011;56692;52.016;4.356;2023-04-03T06:07:13;10.97;;;0.67;;
69491;SDS011;56692;52.016;4.356;2023-04-03T06:09:47;10.10;;;0.70;;
69491;SDS011;56692;52.016;4.356;2023-04-03T06:12:14;7.03;;;1.08;;
69491;SDS011;56692;52.016;4.356;2023-04-03T06:14:40;7.30;;;0.70;;
69491;SDS011;56692;52.016;4.356;2023-04-03T06:17:06;5.07;;;0.67;;
69491;SDS011;56692;52.016;4.356;2023-04-03T06:19:33;5.03;;;0.80;;
69491;SDS011;56692;52.016;4.356;2023-04-03T06:21:59;7.15;;;0.68;;
69491;SDS011;56692;52.016;4.356;2023-04-03T06:24:25;6.50;;;0.70;;
69491;SDS011;56692;52.016;4.356;2023-04-03T06:26:51;5.47;;;0.70;;
69491;SDS011;56692;52.016;4.356;2023-04-03T06:29:18;6.55;;;0.65;;
69491;SDS011;56692;52.016;4.356;2023-04-03T06:31:44;10.02;;;0.85;;
69491;SDS011;56692;52.016;4.356;2023-04-03T06:34:11;4.78;;;0.70;;
69491;SDS011;56692;52.016;4.356;2023-04-03T06:36:37;5.53;;;0.85;;
69491;SDS011;56692;52.016;4.356;2023-04-03T06:39:04;4.47;;;0.80;;
69491;SDS011;56692;52.016;4.356;2023-04-03T06:41:30;3.97;;;0.73;;
69491;SDS011;56692;52.016;4.356;2023-04-03T06:43:56;8.20;;;1.05;;
69491;SDS011;56692;52.016;4.356;2023-04-03T06:46:23;5.03;;;0.60;;
69491;SDS011;56692;52.016;4.356;2023-04-03T06:48:49;5.03;;;0.50;;
69491;SDS011;56692;52.016;4.356;2023-04-03T06:53:49;4.60;;;0.60;;
69491;SDS011;56692;52.016;4.356;2023-04-03T06:56:16;10.32;;;1.63;;
69491;SDS011;56692;52.016;4.356;2023-04-03T06:58:42;4.43;;;0.63;;
69491;SDS011;56692;52.016;4.356;2023-04-03T07:01:12;5.72;;;0.43;;
69491;SDS011;56692;52.016;4.356;2023-04-03T07:03:38;8.60;;;0.88;;
69491;SDS011;56692;52.016;4.356;2023-04-03T07:06:05;4.60;;;0.82;;
69491;SDS011;56692;52.016;4.356;2023-04-03T07:08:32;5.82;;;0.60;;
69491;SDS011;56692;52.016;4.356;2023-04-03T07:10:58;7.67;;;0.83;;
69491;SDS011;56692;52.016;4.356;2023-04-03T07:13:24;3.42;;;0.75;;
69491;SDS011;56692;52.016;4.356;2023-04-03T07:15:50;4.07;;;0.70;;
69491;SDS011;56692;52.016;4.356;2023-04-03T07:18:16;5.45;;;0.55;;
69491;SDS011;56692;52.016;4.356;2023-04-03T07:20:42;4.73;;;0.80;;
69491;SDS011;56692;52.016;4.356;2023-04-03T07:23:08;3.78;;;1.00;;
69491;SDS011;56692;52.016;4.356;2023-04-03T07:25:34;6.43;;;1.08;;
69491;SDS011;56692;52.016;4.356;2023-04-03T07:27:59;3.57;;;0.70;;
69491;SDS011;56692;52.016;4.356;2023-04-03T07:30:25;5.10;;;0.95;;
69491;SDS011;56692;52.016;4.356;2023-04-03T07:32:51;4.10;;;0.68;;
69491;SDS011;56692;52.016;4.356;2023-04-03T07:35:17;10.17;;;1.07;;
69491;SDS011;56692;52.016;4.356;2023-04-03T07:37:43;2.25;;;0.60;;
69491;SDS011;56692;52.016;4.356;2023-04-03T07:40:10;3.45;;;0.80;;
69491;SDS011;56692;52.016;4.356;2023-04-03T07:42:37;3.63;;;0.55;;
69491;SDS011;56692;52.016;4.356;2023-04-03T07:45:03;4.57;;;0.60;;
69491;SDS011;56692;52.016;4.356;2023-04-03T07:47:31;4.47;;;0.60;;
69491;SDS011;56692;52.016;4.356;2023-04-03T07:49:57;4.32;;;0.50;;
69491;SDS011;56692;52.016;4.356;2023-04-03T07:52:24;3.97;;;0.80;;
69491;SDS011;56692;52.016;4.356;2023-04-03T07:54:50;5.15;;;0.50;;
69491;SDS011;56692;52.016;4.356;2023-04-03T07:57:16;6.00;;;0.70;;
69491;SDS011;56692;52.016;4.356;2023-04-03T07:59:41;3.57;;;0.70;;
69491;SDS011;56692;52.016;4.356;2023-04-03T08:02:11;4.10;;;0.60;;
69491;SDS011;56692;52.016;4.356;2023-04-03T08:04:37;2.83;;;0.50;;
69491;SDS011;56692;52.016;4.356;2023-04-03T08:07:03;6.83;;;0.60;;
69491;SDS011;56692;52.016;4.356;2023-04-03T08:09:30;5.13;;;0.65;;
69491;SDS011;56692;52.016;4.356;2023-04-03T08:11:57;2.53;;;0.47;;
69491;SDS011;56692;52.016;4.356;2023-04-03T08:14:23;2.00;;;0.30;;
69491;SDS011;56692;52.016;4.356;2023-04-03T08:16:51;3.17;;;0.68;;
69491;SDS011;56692;52.016;4.356;2023-04-03T08:19:17;2.78;;;0.57;;
69491;SDS011;56692;52.016;4.356;2023-04-03T08:21:43;3.95;;;0.63;;
69491;SDS011;56692;52.016;4.356;2023-04-03T08:24:10;4.77;;;0.70;;
69491;SDS011;56692;52.016;4.356;2023-04-03T08:26:36;2.60;;;0.55;;
69491;SDS011;56692;52.016;4.356;2023-04-03T08:29:02;3.97;;;0.40;;
69491;SDS011;56692;52.016;4.356;2023-04-03T08:31:28;3.38;;;0.73;;
69491;SDS011;56692;52.016;4.356;2023-04-03T08:33:54;4.80;;;0.70;;
69491;SDS011;56692;52.016;4.356;2023-04-03T08:36:28;3.17;;;0.93;;
69491;SDS011;56692;52.016;4.356;2023-04-03T08:38:54;4.63;;;0.60;;
69491;SDS011;56692;52.016;4.356;2023-04-03T08:41:37;2.10;;;0.52;;
69491;SDS011;56692;52.016;4.356;2023-04-03T08:44:11;5.57;;;0.60;;
69491;SDS011;56692;52.016;4.356;2023-04-03T08:52:04;5.45;;;1.35;;
69491;SDS011;56692;52.016;4.356;2023-04-03T08:54:55;4.15;;;0.75;;
69491;SDS011;56692;52.016;4.356;2023-04-03T08:57:28;3.60;;;1.00;;
69491;SDS011;56692;52.016;4.356;2023-04-03T08:59:57;5.57;;;0.43;;
69491;SDS011;56692;52.016;4.356;2023-04-03T09:02:27;2.88;;;0.60;;
69491;SDS011;56692;52.016;4.356;2023-04-03T09:04:58;3.47;;;0.73;;
69491;SDS011;56692;52.016;4.356;2023-04-03T09:08:07;5.18;;;0.80;;
69491;SDS011;56692;52.016;4.356;2023-04-03T09:10:27;4.63;;;1.07;;
69491;SDS011;56692;52.016;4.356;2023-04-03T09:16:21;4.68;;;0.93;;
69491;SDS011;56692;52.016;4.356;2023-04-03T09:21:48;3.38;;;0.50;;
69491;SDS011;56692;52.016;4.356;2023-04-03T09:24:15;6.00;;;0.70;;
69491;SDS011;56692;52.016;4.356;2023-04-03T09:26:44;6.53;;;0.75;;
69491;SDS011;56692;52.016;4.356;2023-04-03T09:29:14;4.00;;;1.00;;
69491;SDS011;56692;52.016;4.356;2023-04-03T09:31:44;5.57;;;0.50;;
69491;SDS011;56692;52.016;4.356;2023-04-03T09:34:30;4.90;;;0.40;;
69491;SDS011;56692;52.016;4.356;2023-04-03T09:36:58;2.25;;;0.50;;
69491;SDS011;56692;52.016;4.356;2023-04-03T09:39:31;2.58;;;0.63;;
69491;SDS011;56692;52.016;4.356;2023-04-03T09:42:00;3.95;;;0.73;;
69491;SDS011;56692;52.016;4.356;2023-04-03T09:44:36;4.00;;;0.53;;
69491;SDS011;56692;52.016;4.356;2023-04-03T09:52:54;3.33;;;0.73;;
69491;SDS011;56692;52.016;4.356;2023-04-03T09:57:52;3.95;;;0.70;;
69491;SDS011;56692;52.016;4.356;2023-04-03T10:00:53;3.90;;;0.40;;
69491;SDS011;56692;52.016;4.356;2023-04-03T10:03:24;4.32;;;0.50;;
69491;SDS011;56692;52.016;4.356;2023-04-03T10:05:53;2.90;;;0.57;;
69491;SDS011;56692;52.016;4.356;2023-04-03T10:08:41;4.43;;;0.50;;
69491;SDS011;56692;52.016;4.356;2023-04-03T10:11:07;5.30;;;0.73;;
69491;SDS011;56692;52.016;4.356;2023-04-03T10:14:17;3.80;;;0.80;;
69491;SDS011;56692;52.016;4.356;2023-04-03T10:16:41;5.43;;;0.50;;
69491;SDS011;56692;52.016;4.356;2023-04-03T10:22:00;6.30;;;0.70;;
69491;SDS011;56692;52.016;4.356;2023-04-03T10:38:15;2.90;;;0.40;;
69491;SDS011;56692;52.016;4.356;2023-04-03T10:44:16;8.30;;;0.40;;
69491;SDS011;56692;52.016;4.356;2023-04-03T10:46:59;3.17;;;0.50;;
69491;SDS011;56692;52.016;4.356;2023-04-03T10:52:31;4.00;;;0.77;;
69491;SDS011;56692;52.016;4.356;2023-04-03T10:57:49;4.33;;;0.50;;
69491;SDS011;56692;52.016;4.356;2023-04-03T11:00:20;6.05;;;0.88;;
69491;SDS011;56692;52.016;4.356;2023-04-03T11:02:56;3.15;;;0.70;;
69491;SDS011;56692;52.016;4.356;2023-04-03T11:05:40;3.30;;;0.70;;
69491;SDS011;56692;52.016;4.356;2023-04-03T11:10:47;6.80;;;0.60;;
69491;SDS011;56692;52.016;4.356;2023-04-03T11:13:22;4.75;;;0.47;;
69491;SDS011;56692;52.016;4.356;2023-04-03T11:16:12;2.63;;;0.45;;
69491;SDS011;56692;52.016;4.356;2023-04-03T11:19:04;3.95;;;0.40;;
69491;SDS011;56692;52.016;4.356;2023-04-03T11:24:31;4.83;;;0.40;;
69491;SDS011;56692;52.016;4.356;2023-04-03T11:27:01;3.55;;;0.45;;
69491;SDS011;56692;52.016;4.356;2023-04-03T11:29:32;4.63;;;0.43;;
69491;SDS011;56692;52.016;4.356;2023-04-03T11:34:54;3.75;;;0.70;;
69491;SDS011;56692;52.016;4.356;2023-04-03T11:40:47;3.55;;;0.32;;
69491;SDS011;56692;52.016;4.356;2023-04-03T11:50:57;5.00;;;0.90;;
69491;SDS011;56692;52.016;4.356;2023-04-03T11:55:58;4.50;;;0.88;;
69491;SDS011;56692;52.016;4.356;2023-04-03T11:58:26;3.33;;;0.40;;
69491;SDS011;56692;52.016;4.356;2023-04-03T12:00:55;2.13;;;0.60;;
69491;SDS011;56692;52.016;4.356;2023-04-03T12:13:36;2.47;;;0.50;;
69491;SDS011;56692;52.016;4.356;2023-04-03T12:16:04;1.90;;;0.43;;
69491;SDS011;56692;52.016;4.356;2023-04-03T12:21:16;2.05;;;0.60;;
69491;SDS011;56692;52.016;4.356;2023-04-03T12:26:30;5.65;;;0.60;;
69491;SDS011;56692;52.016;4.356;2023-04-03T12:28:59;2.25;;;0.68;;
69491;SDS011;56692;52.016;4.356;2023-04-03T12:31:41;4.00;;;0.43;;
69491;SDS011;56692;52.016;4.356;2023-04-03T12:43:20;3.15;;;0.60;;
69491;SDS011;56692;52.016;4.356;2023-04-03T12:48:27;4.80;;;0.70;;
69491;SDS011;56692;52.016;4.356;2023-04-03T12:50:56;3.07;;;0.63;;
69491;SDS011;56692;52.016;4.356;2023-04-03T12:53:25;1.33;;;0.32;;
69491;SDS011;56692;52.016;4.356;2023-04-03T12:56:18;2.90;;;0.50;;
69491;SDS011;56692;52.016;4.356;2023-04-03T12:58:53;3.10;;;0.38;;
69491;SDS011;56692;52.016;4.356;2023-04-03T13:01:21;3.17;;;0.50;;
69491;SDS011;56692;52.016;4.356;2023-04-03T13:03:54;2.40;;;0.40;;
69491;SDS011;56692;52.016;4.356;2023-04-03T13:06:32;2.15;;;0.43;;
69491;SDS011;56692;52.016;4.356;2023-04-03T13:09:04;3.67;;;0.50;;
69491;SDS011;56692;52.016;4.356;2023-04-03T13:11:35;3.53;;;0.70;;
69491;SDS011;56692;52.016;4.356;2023-04-03T13:14:05;2.40;;;0.50;;
69491;SDS011;56692;52.016;4.356;2023-04-03T13:16:40;3.07;;;0.37;;
69491;SDS011;56692;52.016;4.356;2023-04-03T13:19:06;3.47;;;1.10;;
69491;SDS011;56692;52.016;4.356;2023-04-03T13:21:42;1.13;;;0.35;;
69491;SDS011;56692;52.016;4.356;2023-04-03T13:24:09;3.13;;;0.55;;
69491;SDS011;56692;52.016;4.356;2023-04-03T13:26:35;3.45;;;0.55;;
69491;SDS011;56692;52.016;4.356;2023-04-03T13:29:03;2.07;;;0.30;;
69491;SDS011;56692;52.016;4.356;2023-04-03T13:31:33;2.85;;;0.35;;
69491;SDS011;56692;52.016;4.356;2023-04-03T13:36:36;2.47;;;0.40;;
69491;SDS011;56692;52.016;4.356;2023-04-03T13:41:52;2.40;;;0.40;;
69491;SDS011;56692;52.016;4.356;2023-04-03T13:46:52;1.98;;;0.43;;
69491;SDS011;56692;52.016;4.356;2023-04-03T13:49:29;3.13;;;0.35;;
69491;SDS011;56692;52.016;4.356;2023-04-03T13:51:55;2.07;;;0.40;;
69491;SDS011;56692;52.016;4.356;2023-04-03T13:54:23;2.42;;;0.40;;
69491;SDS011;56692;52.016;4.356;2023-04-03T13:57:14;1.42;;;0.38;;
69491;SDS011;56692;52.016;4.356;2023-04-03T13:59:41;1.60;;;0.30;;
69491;SDS011;56692;52.016;4.356;2023-04-03T14:07:05;1.23;;;0.50;;
69491;SDS011;56692;52.016;4.356;2023-04-03T14:09:31;1.98;;;0.40;;
69491;SDS011;56692;52.016;4.356;2023-04-03T14:11:58;1.23;;;0.30;;
69491;SDS011;56692;52.016;4.356;2023-04-03T14:14:34;1.35;;;0.40;;
69491;SDS011;56692;52.016;4.356;2023-04-03T14:17:13;1.45;;;0.50;;
69491;SDS011;56692;52.016;4.356;2023-04-03T14:19:41;4.03;;;0.60;;
69491;SDS011;56692;52.016;4.356;2023-04-03T14:22:15;1.42;;;0.40;;
69491;SDS011;56692;52.016;4.356;2023-04-03T14:24:43;1.20;;;0.30;;
69491;SDS011;56692;52.016;4.356;2023-04-03T14:27:21;2.35;;;0.47;;
69491;SDS011;56692;52.016;4.356;2023-04-03T14:29:50;1.00;;;0.30;;
69491;SDS011;56692;52.016;4.356;2023-04-03T14:32:18;1.55;;;0.40;;
69491;SDS011;56692;52.016;4.356;2023-04-03T14:34:49;2.47;;;0.50;;
69491;SDS011;56692;52.016;4.356;2023-04-03T14:37:20;1.80;;;0.33;;
69491;SDS011;56692;52.016;4.356;2023-04-03T14:39:48;1.67;;;0.50;;
69491;SDS011;56692;52.016;4.356;2023-04-03T14:42:22;1.30;;;0.30;;
69491;SDS011;56692;52.016;4.356;2023-04-03T14:44:51;1.80;;;0.65;;
69491;SDS011;56692;52.016;4.356;2023-04-03T14:47:18;2.27;;;0.60;;
69491;SDS011;56692;52.016;4.356;2023-04-03T14:49:47;1.70;;;0.43;;
69491;SDS011;56692;52.016;4.356;2023-04-03T14:52:20;1.00;;;0.40;;
69491;SDS011;56692;52.016;4.356;2023-04-03T14:54:48;2.15;;;0.77;;
69491;SDS011;56692;52.016;4.356;2023-04-03T14:57:15;2.10;;;0.40;;
69491;SDS011;56692;52.016;4.356;2023-04-03T14:59:42;1.67;;;0.30;;
69491;SDS011;56692;52.016;4.356;2023-04-03T15:04:57;1.08;;;0.20;;
69491;SDS011;56692;52.016;4.356;2023-04-03T15:07:25;1.95;;;0.47;;
69491;SDS011;56692;52.016;4.356;2023-04-03T15:09:53;1.20;;;0.30;;
69491;SDS011;56692;52.016;4.356;2023-04-03T15:12:21;1.25;;;0.30;;
69491;SDS011;56692;52.016;4.356;2023-04-03T15:14:47;1.48;;;0.40;;
69491;SDS011;56692;52.016;4.356;2023-04-03T15:17:18;1.30;;;0.20;;
69491;SDS011;56692;52.016;4.356;2023-04-03T15:19:46;1.10;;;0.43;;
69491;SDS011;56692;52.016;4.356;2023-04-03T15:22:15;1.10;;;0.40;;
69491;SDS011;56692;52.016;4.356;2023-04-03T15:24:43;3.10;;;0.63;;
69491;SDS011;56692;52.016;4.356;2023-04-03T15:27:09;1.27;;;0.60;;
69491;SDS011;56692;52.016;4.356;2023-04-03T15:29:37;1.27;;;0.30;;
69491;SDS011;56692;52.016;4.356;2023-04-03T15:32:03;0.97;;;0.23;;
69491;SDS011;56692;52.016;4.356;2023-04-03T15:34:30;0.90;;;0.30;;
69491;SDS011;56692;52.016;4.356;2023-04-03T15:36:56;1.80;;;0.50;;
69491;SDS011;56692;52.016;4.356;2023-04-03T15:39:22;5.93;;;2.50;;
69491;SDS011;56692;52.016;4.356;2023-04-03T15:41:49;15.95;;;6.68;;
69491;SDS011;56692;52.016;4.356;2023-04-03T15:44:16;18.67;;;10.35;;
69491;SDS011;56692;52.016;4.356;2023-04-03T15:46:43;17.60;;;7.68;;
69491;SDS011;56692;52.016;4.356;2023-04-03T15:49:10;21.40;;;9.50;;
69491;SDS011;56692;52.016;4.356;2023-04-03T15:51:36;27.00;;;12.13;;
69491;SDS011;56692;52.016;4.356;2023-04-03T15:54:02;25.15;;;12.07;;
69491;SDS011;56692;52.016;4.356;2023-04-03T15:56:28;20.75;;;11.07;;
69491;SDS011;56692;52.016;4.356;2023-04-03T15:58:54;23.73;;;10.33;;
69491;SDS011;56692;52.016;4.356;2023-04-03T16:01:19;18.98;;;9.60;;
69491;SDS011;56692;52.016;4.356;2023-04-03T16:03:45;18.80;;;9.73;;
69491;SDS011;56692;52.016;4.356;2023-04-03T16:06:15;18.27;;;8.32;;
69491;SDS011;56692;52.016;4.356;2023-04-03T16:08:41;18.52;;;8.75;;
69491;SDS011;56692;52.016;4.356;2023-04-03T16:11:07;16.60;;;7.60;;
69491;SDS011;56692;52.016;4.356;2023-04-03T16:13:33;16.98;;;7.85;;
69491;SDS011;56692;52.016;4.356;2023-04-03T16:16:00;15.47;;;7.10;;
69491;SDS011;56692;52.016;4.356;2023-04-03T16:18:26;13.93;;;6.63;;
69491;SDS011;56692;52.016;4.356;2023-04-03T16:20:54;15.60;;;6.65;;
69491;SDS011;56692;52.016;4.356;2023-04-03T16:23:20;15.40;;;6.50;;
69491;SDS011;56692;52.016;4.356;2023-04-03T16:25:46;14.00;;;5.93;;
69491;SDS011;56692;52.016;4.356;2023-04-03T16:28:13;14.23;;;6.27;;
69491;SDS011;56692;52.016;4.356;2023-04-03T16:30:43;14.57;;;6.40;;
69491;SDS011;56692;52.016;4.356;2023-04-03T16:33:10;12.95;;;6.50;;
69491;SDS011;56692;52.016;4.356;2023-04-03T16:35:37;13.02;;;6.03;;
69491;SDS011;56692;52.016;4.356;2023-04-03T16:38:03;14.77;;;5.55;;
69491;SDS011;56692;52.016;4.356;2023-04-03T16:40:29;16.13;;;5.47;;
69491;SDS011;56692;52.016;4.356;2023-04-03T16:42:55;12.95;;;5.13;;
69491;SDS011;56692;52.016;4.356;2023-04-03T16:45:20;13.25;;;5.25;;
69491;SDS011;56692;52.016;4.356;2023-04-03T16:47:46;12.60;;;5.03;;
69491;SDS011;56692;52.016;4.356;2023-04-03T16:50:12;12.70;;;4.63;;
69491;SDS011;56692;52.016;4.356;2023-04-03T16:52:38;11.93;;;4.50;;
69491;SDS011;56692;52.016;4.356;2023-04-03T16:55:05;10.63;;;4.65;;